Time;durP1;ratioP1;P1;durP2;ratioP2;P2;SDS_P1;SDS_P2;PMS_P1;PMS_P2;Temp;Humidity;BMP_temperature;BMP_pressure;BME280_temperature;BME280_humidity;BME280_pressure;Samples;Min_cycle;Max_cycle;Signal;HPM_P1;HPM_P2
2022/03/10 00:00:23;;;;;;;17.58;13.20;;;8.00;73.70;;;;;;5106735;28;20223;-64
2022/03/10 00:02:50;;;;;;;16.70;14.50;;;8.00;73.70;;;;;;5104129;28;20603;-64
2022/03/10 00:05:18;;;;;;;17.40;13.25;;;8.00;74.00;;;;;;5098564;28;20215;-64
2022/03/10 00:07:46;;;;;;;20.52;14.05;;;8.00;74.20;;;;;;5112970;27;20223;-64
2022/03/10 00:10:13;;;;;;;18.25;15.55;;;8.00;74.50;;;;;;5112972;28;20227;-63
2022/03/10 00:12:47;;;;;;;17.40;12.95;;;8.00;74.60;;;;;;5112415;28;20234;-63
2022/03/10 00:15:14;;;;;;;16.88;13.48;;;8.00;74.80;;;;;;5113511;27;20227;-64
2022/03/10 00:17:41;;;;;;;19.90;12.85;;;8.00;75.10;;;;;;5113024;27;20330;-64
2022/03/10 00:20:09;;;;;;;14.98;12.88;;;8.00;75.40;;;;;;5102927;28;20302;-63
2022/03/10 00:22:45;;;;;;;17.25;13.10;;;8.00;75.50;;;;;;5106165;28;20239;-63
2022/03/10 00:25:13;;;;;;;17.63;14.18;;;8.00;75.60;;;;;;5105061;28;20238;-64
2022/03/10 00:27:40;;;;;;;19.23;13.48;;;8.00;75.80;;;;;;5099125;28;20223;-64
2022/03/10 00:30:08;;;;;;;19.05;13.20;;;8.00;76.10;;;;;;5100462;28;20228;-63
2022/03/10 00:32:41;;;;;;;17.42;14.25;;;8.00;76.00;;;;;;5105911;28;20281;-63
2022/03/10 00:35:09;;;;;;;19.55;15.18;;;8.00;76.20;;;;;;5106329;28;20227;-64
2022/03/10 00:37:36;;;;;;;19.05;13.98;;;8.00;76.50;;;;;;5104868;27;20222;-64
2022/03/10 00:40:06;;;;;;;20.05;15.52;;;8.00;76.50;;;;;;5112085;28;20222;-64
2022/03/10 00:42:37;;;;;;;19.55;14.60;;;8.00;76.60;;;;;;5100227;27;20214;-63
2022/03/10 00:45:04;;;;;;;18.55;14.52;;;8.00;76.60;;;;;;5113086;28;20223;-64
2022/03/10 00:47:32;;;;;;;19.35;14.48;;;8.00;76.80;;;;;;5103440;28;20233;-63
2022/03/10 00:49:59;;;;;;;17.85;14.60;;;8.00;76.70;;;;;;5106201;28;20219;-63
2022/03/10 00:52:27;;;;;;;19.25;15.00;;;8.00;76.70;;;;;;5101840;28;20215;-63
2022/03/10 00:54:54;;;;;;;17.33;13.60;;;8.00;76.80;;;;;;5111634;27;20229;-64
2022/03/10 00:57:22;;;;;;;19.92;15.82;;;8.00;77.00;;;;;;5111006;28;20230;-64
2022/03/10 00:59:49;;;;;;;20.33;15.07;;;8.00;77.40;;;;;;5112361;28;20223;-63
2022/03/10 01:02:16;;;;;;;20.95;16.13;;;8.00;78.10;;;;;;5107782;28;20582;-63
2022/03/10 01:04:43;;;;;;;21.88;15.02;;;8.00;77.60;;;;;;5103470;28;20231;-63
2022/03/10 01:07:10;;;;;;;23.55;15.38;;;8.00;77.80;;;;;;5112560;28;20543;-63
2022/03/10 01:09:37;;;;;;;19.25;15.00;;;8.00;77.70;;;;;;5100277;28;20233;-64
2022/03/10 01:12:04;;;;;;;17.55;13.95;;;8.00;77.80;;;;;;5106244;28;20227;-63
2022/03/10 01:14:33;;;;;;;25.35;17.15;;;8.00;77.70;;;;;;5109426;27;20230;-64
2022/03/10 01:16:59;;;;;;;20.55;14.60;;;8.00;77.70;;;;;;5108579;28;20230;-64
2022/03/10 01:19:26;;;;;;;20.63;17.45;;;8.00;78.00;;;;;;5109090;28;20223;-64
2022/03/10 01:21:53;;;;;;;21.10;16.23;;;7.90;78.00;;;;;;5102526;28;20242;-64
2022/03/10 01:24:20;;;;;;;22.10;16.23;;;7.90;77.80;;;;;;5103674;28;20223;-63
2022/03/10 01:26:47;;;;;;;18.60;15.05;;;7.90;77.70;;;;;;5109481;27;20674;-63
2022/03/10 01:29:14;;;;;;;20.88;16.50;;;7.80;77.80;;;;;;5109396;28;20238;-63
2022/03/10 01:31:42;;;;;;;19.95;16.30;;;7.80;77.90;;;;;;5102202;28;20226;-63
2022/03/10 01:34:09;;;;;;;22.60;16.23;;;7.70;77.90;;;;;;5102951;28;20243;-63
2022/03/10 01:36:36;;;;;;;18.05;15.48;;;7.60;78.20;;;;;;5113627;28;20668;-63
2022/03/10 01:39:04;;;;;;;19.83;14.93;;;7.60;78.30;;;;;;5116128;28;20235;-63
2022/03/10 01:41:32;;;;;;;22.63;15.63;;;7.60;78.60;;;;;;5102638;28;20227;-64
2022/03/10 01:43:59;;;;;;;22.77;16.95;;;7.50;79.10;;;;;;5110755;28;20227;-62
2022/03/10 01:46:26;;;;;;;24.25;16.80;;;7.50;79.30;;;;;;5110851;27;20223;-62
2022/03/10 01:48:55;;;;;;;22.88;17.50;;;7.50;80.40;;;;;;5107665;28;20226;-63
2022/03/10 01:51:23;;;;;;;21.02;15.70;;;7.50;79.80;;;;;;5102488;27;20575;-63
2022/03/10 01:53:50;;;;;;;23.13;17.45;;;7.40;80.00;;;;;;5115265;27;22698;-63
2022/03/10 01:56:18;;;;;;;19.20;15.05;;;7.40;80.20;;;;;;5116225;28;20235;-63
2022/03/10 01:58:46;;;;;;;22.52;16.60;;;7.40;80.20;;;;;;5112352;27;20571;-63
2022/03/10 02:01:14;;;;;;;19.70;16.05;;;7.40;80.30;;;;;;5105864;27;20231;-63
2022/03/10 02:03:41;;;;;;;22.77;16.05;;;7.40;80.50;;;;;;5101658;28;20692;-64
2022/03/10 02:06:11;;;;;;;24.33;18.38;;;7.30;80.40;;;;;;5115777;28;20229;-64
2022/03/10 02:11:22;;;;;;;22.10;16.52;;;7.30;80.90;;;;;;5108686;28;20222;-63
2022/03/10 02:13:50;;;;;;;22.45;15.73;;;7.30;81.10;;;;;;5106265;28;20697;-64
2022/03/10 02:19:04;;;;;;;20.65;16.80;;;7.30;81.40;;;;;;5104828;28;20234;-63
2022/03/10 02:21:32;;;;;;;24.00;15.55;;;7.20;81.60;;;;;;5101857;28;20239;-64
2022/03/10 02:24:00;;;;;;;24.27;17.33;;;7.20;81.70;;;;;;5104405;27;20238;-62
2022/03/10 02:26:27;;;;;;;22.40;17.02;;;7.20;81.80;;;;;;5108372;28;20775;-63
2022/03/10 02:28:54;;;;;;;20.65;16.85;;;7.20;82.10;;;;;;5105832;28;20223;-63
2022/03/10 02:31:21;;;;;;;27.33;16.77;;;7.10;82.10;;;;;;5113496;27;20215;-63
2022/03/10 02:33:48;;;;;;;20.85;15.68;;;7.20;83.00;;;;;;5114789;27;20227;-63
2022/03/10 02:36:15;;;;;;;21.33;15.32;;;7.10;82.30;;;;;;5109637;28;20639;-62
2022/03/10 02:38:42;;;;;;;23.10;17.33;;;7.10;82.50;;;;;;5102911;28;20606;-63
2022/03/10 02:41:10;;;;;;;18.77;15.65;;;7.10;82.70;;;;;;5113587;28;20443;-63
2022/03/10 02:43:37;;;;;;;21.52;16.65;;;7.10;82.70;;;;;;5102541;28;20223;-63
2022/03/10 02:46:04;;;;;;;21.23;16.38;;;7.10;82.80;;;;;;5113448;28;20223;-63
2022/03/10 02:48:31;;;;;;;27.02;18.73;;;7.10;83.00;;;;;;5103104;27;20215;-64
2022/03/10 02:50:59;;;;;;;20.95;16.00;;;7.10;82.90;;;;;;5100714;28;20219;-62
2022/03/10 02:53:26;;;;;;;25.38;18.83;;;7.10;82.90;;;;;;5107107;28;20224;-63
2022/03/10 02:55:55;;;;;;;28.40;17.50;;;7.10;82.80;;;;;;5115044;27;20219;-63
2022/03/10 02:58:23;;;;;;;21.70;16.77;;;7.00;83.00;;;;;;5114487;27;20235;-63
2022/03/10 03:00:50;;;;;;;25.83;18.73;;;7.00;83.00;;;;;;5105125;28;20571;-63
2022/03/10 03:03:17;;;;;;;22.33;16.65;;;7.00;83.00;;;;;;5106901;28;20250;-63
2022/03/10 03:05:44;;;;;;;21.65;15.52;;;7.00;83.20;;;;;;5104279;27;20563;-63
2022/03/10 03:08:11;;;;;;;24.75;17.27;;;7.00;83.30;;;;;;5113622;27;20227;-63
2022/03/10 03:10:38;;;;;;;20.20;17.73;;;7.00;83.60;;;;;;5104401;28;20227;-63
2022/03/10 03:13:06;;;;;;;29.10;19.08;;;7.00;83.70;;;;;;5111066;28;20566;-63
2022/03/10 03:15:34;;;;;;;25.02;18.30;;;7.00;83.80;;;;;;5114376;28;20287;-64
2022/03/10 03:18:01;;;;;;;26.30;17.50;;;7.00;83.70;;;;;;5100615;28;20216;-64
2022/03/10 03:20:28;;;;;;;26.65;18.25;;;7.00;83.80;;;;;;5102636;28;20565;-63
2022/03/10 03:22:55;;;;;;;21.13;18.52;;;7.00;83.90;;;;;;5107368;28;20223;-63
2022/03/10 03:25:22;;;;;;;21.13;17.10;;;6.90;84.10;;;;;;5105308;28;20250;-63
2022/03/10 03:27:49;;;;;;;26.60;18.58;;;7.00;84.30;;;;;;5100247;28;20219;-63
2022/03/10 03:30:16;;;;;;;25.25;17.75;;;7.00;84.10;;;;;;5101887;28;20242;-63
2022/03/10 03:32:45;;;;;;;23.25;17.08;;;7.00;84.10;;;;;;5107572;28;20220;-63
2022/03/10 03:35:12;;;;;;;24.63;17.83;;;7.00;84.20;;;;;;5105823;28;20250;-63
2022/03/10 03:37:39;;;;;;;24.08;17.95;;;7.00;84.00;;;;;;5094596;28;20309;-63
2022/03/10 03:40:07;;;;;;;20.95;16.73;;;7.00;83.90;;;;;;5112594;28;20227;-63
2022/03/10 03:42:34;;;;;;;21.85;16.92;;;7.10;84.20;;;;;;5105307;27;20287;-63
2022/03/10 03:45:02;;;;;;;26.48;18.08;;;7.10;84.20;;;;;;5113722;28;21058;-63
2022/03/10 03:47:29;;;;;;;23.48;16.65;;;7.10;83.90;;;;;;5099940;28;20224;-63
2022/03/10 03:49:57;;;;;;;29.17;18.25;;;7.10;83.80;;;;;;5100229;28;20219;-63
2022/03/10 03:52:24;;;;;;;23.83;17.38;;;7.10;83.70;;;;;;5112935;28;20238;-63
2022/03/10 03:54:51;;;;;;;21.30;17.85;;;7.10;83.70;;;;;;5107433;27;20230;-63
2022/03/10 03:57:18;;;;;;;23.75;17.98;;;7.10;83.80;;;;;;5107494;28;20227;-63
2022/03/10 03:59:45;;;;;;;22.55;16.38;;;7.10;83.80;;;;;;5112852;28;20559;-63
2022/03/10 04:02:11;;;;;;;24.23;18.25;;;7.10;83.80;;;;;;5101080;28;20238;-63
2022/03/10 04:04:39;;;;;;;22.38;16.33;;;7.10;83.90;;;;;;5099192;28;20219;-63
2022/03/10 04:07:10;;;;;;;23.92;19.13;;;7.10;84.10;;;;;;5113477;27;20223;-64
2022/03/10 04:09:36;;;;;;;25.52;18.85;;;7.10;83.90;;;;;;5111057;28;20623;-63
2022/03/10 04:12:04;;;;;;;24.70;15.60;;;7.00;83.90;;;;;;5101413;28;20227;-63
2022/03/10 04:14:30;;;;;;;24.23;16.55;;;7.10;84.10;;;;;;5112611;28;20234;-62
2022/03/10 04:16:57;;;;;;;22.05;16.85;;;7.10;84.10;;;;;;5104464;28;20573;-63
2022/03/10 04:19:24;;;;;;;21.98;17.52;;;7.10;83.90;;;;;;5106243;28;20223;-62
2022/03/10 04:21:51;;;;;;;23.45;17.48;;;7.10;83.80;;;;;;5101885;28;20248;-63
2022/03/10 04:24:19;;;;;;;24.45;17.65;;;7.00;83.30;;;;;;5099036;28;20215;-62
2022/03/10 04:26:46;;;;;;;26.33;18.52;;;7.00;83.40;;;;;;5104172;28;20223;-63
2022/03/10 04:29:14;;;;;;;24.92;16.10;;;7.00;83.60;;;;;;5106763;28;20244;-63
2022/03/10 04:31:41;;;;;;;25.40;19.27;;;6.90;83.60;;;;;;5101964;28;20956;-62
2022/03/10 04:34:07;;;;;;;26.23;17.98;;;6.70;84.00;;;;;;5099372;28;20235;-62
2022/03/10 04:36:34;;;;;;;23.13;18.45;;;6.60;84.10;;;;;;5102954;28;20238;-63
2022/03/10 04:39:01;;;;;;;24.95;18.05;;;6.50;84.60;;;;;;5103680;28;20222;-63
2022/03/10 04:41:29;;;;;;;20.88;17.15;;;6.50;84.70;;;;;;5108418;28;20238;-62
2022/03/10 04:43:56;;;;;;;25.67;17.98;;;6.50;84.90;;;;;;5103586;28;20230;-63
2022/03/10 04:46:23;;;;;;;21.05;16.67;;;6.50;85.20;;;;;;5108226;28;20223;-62
2022/03/10 04:48:50;;;;;;;22.20;17.30;;;6.50;85.10;;;;;;5104211;28;20302;-63
2022/03/10 04:51:17;;;;;;;25.75;19.45;;;6.50;85.20;;;;;;5100152;28;20241;-63
2022/03/10 04:53:44;;;;;;;23.77;16.63;;;6.50;85.50;;;;;;5109652;27;20941;-63
2022/03/10 04:56:11;;;;;;;22.10;16.52;;;6.40;85.20;;;;;;5117258;27;20219;-63
2022/03/10 04:58:39;;;;;;;29.73;17.33;;;6.50;85.50;;;;;;5116839;27;20227;-63
2022/03/10 05:01:06;;;;;;;23.65;18.90;;;6.50;85.50;;;;;;5105073;28;20232;-61
2022/03/10 05:03:33;;;;;;;28.05;18.90;;;6.40;85.50;;;;;;5109318;28;20246;-62
2022/03/10 05:06:03;;;;;;;23.40;16.80;;;6.40;85.80;;;;;;5108968;27;20223;-61
2022/03/10 05:08:30;;;;;;;24.73;18.80;;;6.40;86.00;;;;;;5116511;27;20257;-62
2022/03/10 05:10:57;;;;;;;28.77;19.15;;;6.30;86.30;;;;;;5115597;28;20223;-61
2022/03/10 05:13:24;;;;;;;23.45;18.10;;;6.30;86.40;;;;;;5114991;27;20724;-60
2022/03/10 05:15:53;;;;;;;24.85;19.73;;;6.30;86.40;;;;;;5115780;27;20233;-61
2022/03/10 05:18:20;;;;;;;24.17;17.35;;;6.30;86.40;;;;;;5116995;27;20235;-61
2022/03/10 05:20:46;;;;;;;22.25;18.50;;;6.30;86.60;;;;;;5116714;27;20539;-60
2022/03/10 05:23:13;;;;;;;25.33;18.25;;;6.20;86.90;;;;;;5116660;27;20222;-61
2022/03/10 05:25:42;;;;;;;22.17;17.48;;;6.20;87.10;;;;;;5116477;27;20238;-60
2022/03/10 05:28:13;;;;;;;29.17;18.33;;;6.20;87.20;;;;;;5116861;27;20230;-61
2022/03/10 05:30:40;;;;;;;23.27;17.40;;;6.20;87.30;;;;;;5116187;27;20673;-60
2022/03/10 05:33:09;;;;;;;25.92;18.33;;;6.10;87.50;;;;;;5116678;27;20238;-60
2022/03/10 05:35:36;;;;;;;23.50;18.02;;;6.10;87.50;;;;;;5116309;27;20234;-61
2022/03/10 05:38:04;;;;;;;26.92;18.25;;;6.10;87.70;;;;;;5116547;27;20227;-60
2022/03/10 05:40:31;;;;;;;25.52;18.58;;;6.10;87.80;;;;;;5116079;27;20223;-61
2022/03/10 05:42:58;;;;;;;27.77;19.70;;;6.10;88.00;;;;;;5116548;27;20692;-61
2022/03/10 05:45:26;;;;;;;29.20;18.80;;;6.10;88.30;;;;;;5116063;27;20563;-60
2022/03/10 05:47:54;;;;;;;27.50;19.92;;;6.20;88.30;;;;;;5116391;27;20231;-62
2022/03/10 05:50:23;;;;;;;31.55;19.70;;;6.10;88.20;;;;;;5116350;27;20231;-61
2022/03/10 05:52:51;;;;;;;26.15;19.15;;;6.10;88.60;;;;;;5115989;27;20219;-62
2022/03/10 05:55:18;;;;;;;23.83;18.08;;;6.20;88.70;;;;;;5116169;27;20238;-61
2022/03/10 05:57:45;;;;;;;33.33;20.40;;;6.20;88.70;;;;;;5115749;27;20256;-62
2022/03/10 06:00:14;;;;;;;31.98;18.92;;;6.20;88.60;;;;;;5116081;27;20235;-62
2022/03/10 06:02:41;;;;;;;25.33;20.33;;;6.20;88.60;;;;;;5115172;27;20235;-63
2022/03/10 06:05:09;;;;;;;30.63;20.30;;;6.20;88.60;;;;;;5115860;27;20230;-61
2022/03/10 06:07:37;;;;;;;29.58;21.60;;;6.20;88.80;;;;;;5115498;27;20231;-61
2022/03/10 06:10:06;;;;;;;25.33;19.90;;;6.20;89.00;;;;;;5115904;27;20230;-61
2022/03/10 06:12:32;;;;;;;23.45;18.25;;;6.20;89.10;;;;;;5115291;27;20594;-62
2022/03/10 06:15:01;;;;;;;28.88;20.83;;;6.30;89.30;;;;;;5115873;27;20238;-62
2022/03/10 06:17:30;;;;;;;27.02;20.60;;;6.30;89.30;;;;;;5115484;27;20223;-63
2022/03/10 06:19:57;;;;;;;27.08;20.45;;;6.30;89.20;;;;;;5115900;27;20279;-62
2022/03/10 06:22:29;;;;;;;27.42;20.58;;;6.40;89.10;;;;;;5115620;27;20231;-62
2022/03/10 06:24:57;;;;;;;30.42;21.25;;;6.40;89.20;;;;;;5115518;27;20744;-62
2022/03/10 06:27:24;;;;;;;23.20;18.60;;;6.40;89.20;;;;;;5115740;27;20553;-61
2022/03/10 06:29:52;;;;;;;25.13;19.65;;;6.40;89.00;;;;;;5115028;27;20649;-61
2022/03/10 06:32:19;;;;;;;31.10;20.75;;;6.40;88.90;;;;;;5115465;27;20230;-62
2022/03/10 06:34:47;;;;;;;26.88;18.60;;;6.40;89.10;;;;;;5115247;27;20595;-62
2022/03/10 06:37:16;;;;;;;27.52;19.65;;;6.40;89.10;;;;;;5115289;27;20227;-62
2022/03/10 06:39:46;;;;;;;30.95;21.10;;;6.40;89.30;;;;;;5114930;27;20222;-62
2022/03/10 06:42:16;;;;;;;29.40;19.73;;;6.40;89.90;;;;;;5115217;27;20223;-62
2022/03/10 06:44:45;;;;;;;29.52;20.08;;;6.40;89.70;;;;;;5114670;27;20689;-62
2022/03/10 06:47:18;;;;;;;29.25;19.02;;;6.40;89.90;;;;;;5115177;27;20302;-62
2022/03/10 06:49:49;;;;;;;26.60;19.30;;;6.40;89.70;;;;;;5114661;27;20284;-61
2022/03/10 06:52:20;;;;;;;31.83;20.73;;;6.40;90.00;;;;;;5114985;27;20223;-62
2022/03/10 06:54:50;;;;;;;30.48;21.45;;;6.40;90.10;;;;;;5114065;27;20227;-62
2022/03/10 06:57:22;;;;;;;30.92;21.95;;;6.40;90.10;;;;;;5114726;27;20280;-62
2022/03/10 06:59:51;;;;;;;27.55;19.00;;;6.50;90.10;;;;;;5114091;27;20247;-61
2022/03/10 07:02:20;;;;;;;28.95;19.48;;;6.50;90.10;;;;;;5114901;27;20227;-61
2022/03/10 07:04:47;;;;;;;26.13;19.77;;;6.60;90.20;;;;;;5114198;27;20233;-62
2022/03/10 07:07:14;;;;;;;26.00;19.65;;;6.60;90.10;;;;;;5114802;27;20230;-62
2022/03/10 07:09:43;;;;;;;27.33;21.10;;;6.70;90.10;;;;;;5114351;27;20308;-62
2022/03/10 07:12:10;;;;;;;28.38;21.10;;;6.70;90.10;;;;;;5114672;27;20696;-61
2022/03/10 07:14:39;;;;;;;27.77;20.88;;;6.80;90.30;;;;;;5113470;27;20223;-62
2022/03/10 07:17:06;;;;;;;22.27;18.40;;;6.80;90.30;;;;;;5114682;27;20543;-62
2022/03/10 07:19:32;;;;;;;29.05;20.15;;;6.90;90.30;;;;;;5114602;27;20568;-62
2022/03/10 07:21:59;;;;;;;27.88;20.65;;;6.90;90.40;;;;;;5114119;27;20223;-62
2022/03/10 07:24:26;;;;;;;27.48;21.50;;;6.90;90.40;;;;;;5114364;27;20237;-62
2022/03/10 07:26:53;;;;;;;27.45;19.70;;;6.90;90.30;;;;;;5114096;27;20277;-62
2022/03/10 07:29:20;;;;;;;29.88;20.20;;;6.90;90.50;;;;;;5114629;27;20219;-63
2022/03/10 07:31:51;;;;;;;32.53;22.55;;;6.80;90.80;;;;;;5113747;27;20227;-62
2022/03/10 07:34:18;;;;;;;29.88;20.55;;;6.80;91.00;;;;;;5114273;27;20239;-62
2022/03/10 07:36:45;;;;;;;32.20;23.92;;;6.80;91.00;;;;;;5113825;27;20249;-62
2022/03/10 07:39:12;;;;;;;30.52;22.70;;;6.80;91.20;;;;;;5114305;27;20557;-62
2022/03/10 07:41:38;;;;;;;29.55;21.23;;;6.80;91.30;;;;;;5113826;27;20231;-61
2022/03/10 07:44:05;;;;;;;29.92;20.95;;;6.80;91.50;;;;;;5114176;27;20227;-60
2022/03/10 07:46:32;;;;;;;27.27;19.02;;;6.90;91.50;;;;;;5114268;27;20251;-62
2022/03/10 07:49:00;;;;;;;29.15;21.50;;;7.00;91.60;;;;;;5113659;27;20229;-61
2022/03/10 07:51:27;;;;;;;27.73;20.48;;;7.00;91.80;;;;;;5113960;27;20688;-61
2022/03/10 07:53:54;;;;;;;28.50;21.63;;;7.00;91.80;;;;;;5113345;27;20227;-61
2022/03/10 07:56:21;;;;;;;26.85;19.20;;;7.00;92.00;;;;;;5113967;27;20566;-61
2022/03/10 07:58:47;;;;;;;27.08;20.48;;;7.00;92.10;;;;;;5113514;27;20234;-61
2022/03/10 08:01:14;;;;;;;34.15;21.20;;;7.00;92.20;;;;;;5113888;27;20257;-60
2022/03/10 08:03:41;;;;;;;26.83;21.45;;;7.10;92.30;;;;;;5113328;27;20250;-61
2022/03/10 08:06:09;;;;;;;27.73;21.88;;;7.10;92.60;;;;;;5113750;27;20219;-62
2022/03/10 08:08:37;;;;;;;31.60;20.63;;;7.20;92.30;;;;;;5113805;27;20230;-62
2022/03/10 08:11:05;;;;;;;28.42;21.02;;;7.30;92.40;;;;;;5113355;27;20234;-62
2022/03/10 08:13:33;;;;;;;27.23;20.85;;;7.30;92.30;;;;;;5113705;27;20302;-62
2022/03/10 08:16:00;;;;;;;29.95;21.02;;;7.30;92.40;;;;;;5113003;27;20321;-62
2022/03/10 08:18:27;;;;;;;32.13;21.58;;;7.40;92.50;;;;;;5113755;27;20238;-62
2022/03/10 08:20:55;;;;;;;26.92;20.90;;;7.30;92.60;;;;;;5112929;27;20231;-62
2022/03/10 08:23:23;;;;;;;27.77;18.70;;;7.30;92.60;;;;;;5113510;27;20745;-63
2022/03/10 08:25:50;;;;;;;32.30;20.58;;;7.40;92.80;;;;;;5113002;27;20227;-61
2022/03/10 08:28:17;;;;;;;26.83;19.95;;;7.40;92.80;;;;;;5113434;27;20688;-62
2022/03/10 08:30:44;;;;;;;24.85;21.63;;;7.40;92.80;;;;;;5112978;27;20708;-62
2022/03/10 08:33:11;;;;;;;29.13;21.23;;;7.50;92.80;;;;;;5113539;27;20622;-62
2022/03/10 08:35:38;;;;;;;29.02;20.40;;;7.50;92.80;;;;;;5113163;27;20227;-62
2022/03/10 08:38:05;;;;;;;27.58;20.98;;;7.50;93.00;;;;;;5112955;27;20246;-62
2022/03/10 08:40:34;;;;;;;30.25;19.27;;;7.40;93.20;;;;;;5113212;27;20227;-62
2022/03/10 08:43:01;;;;;;;32.45;21.98;;;7.50;93.30;;;;;;5112812;27;20680;-62
2022/03/10 08:45:32;;;;;;;26.65;20.92;;;7.60;93.30;;;;;;5113258;27;20753;-61
2022/03/10 08:47:59;;;;;;;28.98;23.45;;;7.70;93.30;;;;;;5112867;27;20247;-62
2022/03/10 08:50:26;;;;;;;27.60;21.88;;;7.80;93.30;;;;;;5113004;27;20227;-61
2022/03/10 08:52:54;;;;;;;27.27;21.20;;;7.80;93.30;;;;;;5112747;27;20226;-62
2022/03/10 08:55:21;;;;;;;32.47;21.40;;;7.90;93.20;;;;;;5113207;27;20229;-62
2022/03/10 08:57:49;;;;;;;25.00;19.95;;;8.00;93.20;;;;;;5112596;27;20214;-62
2022/03/10 09:00:18;;;;;;;29.92;20.58;;;8.10;93.10;;;;;;5113148;27;20218;-62
2022/03/10 09:02:45;;;;;;;25.23;20.00;;;8.20;93.10;;;;;;5112682;27;20221;-61
2022/03/10 09:05:13;;;;;;;32.30;21.55;;;8.30;92.80;;;;;;5112723;27;20226;-61
2022/03/10 09:07:40;;;;;;;29.60;20.65;;;8.30;92.70;;;;;;5113003;27;20747;-61
2022/03/10 09:10:08;;;;;;;25.25;20.85;;;8.50;92.70;;;;;;5112524;27;20226;-63
2022/03/10 09:12:35;;;;;;;29.48;20.83;;;8.50;92.60;;;;;;5113069;27;20237;-62
2022/03/10 09:15:04;;;;;;;29.73;20.85;;;8.60;92.70;;;;;;5112618;27;20223;-61
2022/03/10 09:17:31;;;;;;;30.08;21.08;;;8.70;92.90;;;;;;5113020;27;20793;-61
2022/03/10 09:19:57;;;;;;;63.72;23.73;;;8.80;92.70;;;;;;5112599;27;20572;-61
2022/03/10 09:22:25;;;;;;;66.45;25.42;;;8.90;92.80;;;;;;5112849;27;20222;-62
2022/03/10 09:24:52;;;;;;;32.75;22.10;;;9.00;92.80;;;;;;5112539;27;20222;-61
2022/03/10 09:27:19;;;;;;;27.92;20.80;;;9.10;92.40;;;;;;5112936;27;20222;-62
2022/03/10 09:29:46;;;;;;;31.80;20.10;;;9.10;92.30;;;;;;5112478;27;20306;-61
2022/03/10 09:32:14;;;;;;;31.70;19.50;;;9.20;92.20;;;;;;5112496;27;20665;-62
2022/03/10 09:34:47;;;;;;;28.35;21.23;;;9.30;92.10;;;;;;5112048;27;20287;-62
2022/03/10 09:37:14;;;;;;;28.60;20.65;;;9.30;91.80;;;;;;5112475;27;20229;-61
2022/03/10 09:39:41;;;;;;;29.13;19.20;;;9.40;91.80;;;;;;5128293;27;20222;-62
2022/03/10 09:42:11;;;;;;;25.58;19.30;;;9.50;91.70;;;;;;5135886;27;20234;-61
2022/03/10 09:44:40;;;;;;;23.25;20.08;;;9.60;91.70;;;;;;5136263;27;20305;-62
2022/03/10 09:47:07;;;;;;;30.15;20.88;;;9.50;91.50;;;;;;5136031;27;20226;-62
2022/03/10 09:49:36;;;;;;;28.58;23.50;;;9.60;91.50;;;;;;5136978;27;20548;-61
2022/03/10 09:52:03;;;;;;;25.17;19.20;;;9.60;91.40;;;;;;5136501;27;20686;-62
2022/03/10 09:54:30;;;;;;;28.50;19.38;;;9.60;91.40;;;;;;5136874;27;20214;-62
2022/03/10 09:56:58;;;;;;;27.77;19.58;;;9.60;91.40;;;;;;5116481;27;20223;-62
2022/03/10 09:59:27;;;;;;;26.92;18.23;;;9.70;91.40;;;;;;5116116;27;20746;-62
2022/03/10 10:01:56;;;;;;;24.50;18.27;;;9.80;91.30;;;;;;5115820;27;20227;-62
2022/03/10 10:04:23;;;;;;;37.05;19.02;;;9.90;91.30;;;;;;5116096;27;20694;-62
2022/03/10 10:07:06;;;;;;;28.13;19.58;;;9.80;91.10;;;;;;5115805;27;20225;-62
2022/03/10 10:09:46;;;;;;;23.98;18.42;;;9.70;91.00;;;;;;5116115;27;20742;-61
2022/03/10 10:12:15;;;;;;;21.25;17.17;;;9.80;91.30;;;;;;5115829;27;20306;-61
2022/03/10 10:14:44;;;;;;;20.25;16.75;;;9.80;91.10;;;;;;5115482;27;20238;-61
2022/03/10 10:17:12;;;;;;;20.27;16.25;;;9.80;91.20;;;;;;5115886;27;20231;-61
2022/03/10 10:19:41;;;;;;;23.25;19.00;;;9.80;91.10;;;;;;5115450;27;20223;-61
2022/03/10 10:22:19;;;;;;;20.52;16.60;;;9.90;91.20;;;;;;5115614;27;20227;-61
2022/03/10 10:24:50;;;;;;;20.35;17.55;;;9.90;90.90;;;;;;5115341;27;20565;-61
2022/03/10 10:27:18;;;;;;;27.17;17.25;;;10.00;90.10;;;;;;5115842;27;20299;-62
2022/03/10 10:29:47;;;;;;;20.60;16.60;;;10.10;90.20;;;;;;5115276;27;20238;-62
2022/03/10 10:32:24;;;;;;;27.50;19.25;;;10.10;90.20;;;;;;5115421;27;20223;-61
2022/03/10 10:35:08;;;;;;;22.23;17.17;;;10.00;90.10;;;;;;5115114;27;20234;-61
2022/03/10 10:37:38;;;;;;;20.65;17.30;;;10.10;90.20;;;;;;5114939;27;20237;-60
2022/03/10 10:40:07;;;;;;;21.88;17.25;;;10.20;90.00;;;;;;5115605;27;20230;-62
2022/03/10 10:42:35;;;;;;;22.45;15.93;;;10.30;90.10;;;;;;5115347;27;20230;-62
2022/03/10 10:45:23;;;;;;;26.00;18.10;;;10.40;90.00;;;;;;5115064;27;20234;-62
2022/03/10 10:48:00;;;;;;;24.02;18.05;;;10.40;89.60;;;;;;5114633;27;20223;-62
2022/03/10 10:50:30;;;;;;;26.45;18.30;;;10.40;89.00;;;;;;5115289;27;20235;-62
2022/03/10 10:52:58;;;;;;;21.05;17.90;;;10.50;89.20;;;;;;5114780;27;20234;-62
2022/03/10 10:55:32;;;;;;;29.67;18.48;;;10.50;88.70;;;;;;5114825;27;20685;-61
2022/03/10 10:58:06;;;;;;;24.10;18.98;;;10.50;88.60;;;;;;5114583;27;20229;-62
2022/03/10 11:00:42;;;;;;;23.67;18.38;;;10.50;88.20;;;;;;5115116;27;20231;-62
2022/03/10 11:03:20;;;;;;;21.95;18.45;;;10.50;88.20;;;;;;5114516;27;20347;-61
2022/03/10 11:05:48;;;;;;;25.35;19.70;;;10.50;88.30;;;;;;5114569;27;20291;-61
2022/03/10 11:08:16;;;;;;;25.67;19.08;;;10.50;88.00;;;;;;5114694;27;20215;-61
2022/03/10 11:10:43;;;;;;;18.65;16.65;;;10.40;88.00;;;;;;5114888;27;20601;-61
2022/03/10 11:13:13;;;;;;;21.25;17.85;;;10.40;87.70;;;;;;5114517;27;20215;-62
2022/03/10 11:15:43;;;;;;;20.98;15.57;;;10.40;87.90;;;;;;5114813;27;20233;-61
2022/03/10 11:18:12;;;;;;;19.23;16.42;;;10.40;86.00;;;;;;5114357;27;20222;-61
2022/03/10 11:20:41;;;;;;;19.38;17.33;;;10.50;86.20;;;;;;5114553;27;20316;-61
2022/03/10 11:23:17;;;;;;;17.88;16.02;;;10.40;85.70;;;;;;5114048;27;20227;-62
2022/03/10 11:25:50;;;;;;;17.90;15.23;;;10.40;85.70;;;;;;5114735;27;20218;-62
2022/03/10 11:28:21;;;;;;;17.85;14.57;;;10.40;85.50;;;;;;5114458;27;20211;-61
2022/03/10 11:30:50;;;;;;;16.00;14.32;;;10.30;84.80;;;;;;5114427;27;20279;-61
2022/03/10 11:33:17;;;;;;;18.55;15.45;;;10.30;84.90;;;;;;5113961;27;20226;-61
2022/03/10 11:35:46;;;;;;;21.08;17.73;;;10.40;85.10;;;;;;5114399;27;20306;-62
2022/03/10 11:38:14;;;;;;;21.98;15.52;;;10.30;84.90;;;;;;5113834;27;20237;-62
2022/03/10 11:40:51;;;;;;;16.40;14.55;;;10.40;85.10;;;;;;5114128;27;20238;-62
2022/03/10 11:43:31;;;;;;;17.30;15.40;;;10.50;85.20;;;;;;5113938;27;20222;-61
2022/03/10 11:46:17;;;;;;;19.00;14.98;;;10.60;85.20;;;;;;5113883;27;20305;-62
2022/03/10 11:48:44;;;;;;;16.92;15.00;;;10.70;84.80;;;;;;5114226;27;20243;-62
2022/03/10 11:51:17;;;;;;;20.42;17.27;;;10.70;84.40;;;;;;5113513;27;20227;-61
2022/03/10 11:54:06;;;;;;;16.85;15.05;;;10.80;83.70;;;;;;5113953;27;20615;-62
2022/03/10 11:56:57;;;;;;;18.33;15.18;;;10.70;82.40;;;;;;5114315;27;20558;-63
2022/03/10 11:59:26;;;;;;;16.23;14.70;;;10.70;82.20;;;;;;5113687;27;20219;-62
2022/03/10 12:01:54;;;;;;;16.85;15.15;;;10.70;81.70;;;;;;5113576;27;20222;-62
2022/03/10 12:04:22;;;;;;;15.05;13.45;;;10.70;81.30;;;;;;5113466;27;20314;-61
2022/03/10 12:06:50;;;;;;;17.92;14.48;;;10.60;80.70;;;;;;5113681;27;20223;-62
2022/03/10 12:09:28;;;;;;;15.43;13.82;;;10.60;81.30;;;;;;5113316;27;20722;-59
2022/03/10 12:12:14;;;;;;;17.70;14.38;;;10.50;81.10;;;;;;5113936;27;20567;-61
2022/03/10 12:14:41;;;;;;;14.95;13.52;;;10.40;80.90;;;;;;5113039;27;20219;-61
2022/03/10 12:17:41;;;;;;;13.65;12.32;;;10.40;81.10;;;;;;5113186;27;20223;-62
2022/03/10 12:20:12;;;;;;;14.88;12.93;;;10.30;80.80;;;;;;5113376;27;20532;-61
2022/03/10 12:22:39;;;;;;;15.90;12.80;;;10.40;80.80;;;;;;5113404;27;20561;-61
2022/03/10 12:25:20;;;;;;;15.80;13.90;;;10.40;80.50;;;;;;5111522;27;20676;-62
2022/03/10 12:27:52;;;;;;;13.30;11.90;;;10.30;79.60;;;;;;5113438;27;20227;-62
2022/03/10 12:30:21;;;;;;;13.48;12.10;;;10.30;80.20;;;;;;5092646;28;20238;-62
2022/03/10 12:32:51;;;;;;;15.85;13.60;;;10.40;80.50;;;;;;5098210;28;20306;-62
2022/03/10 12:35:21;;;;;;;14.95;12.15;;;10.40;80.20;;;;;;5112733;27;20215;-62
2022/03/10 12:37:48;;;;;;;15.38;12.82;;;10.40;80.40;;;;;;5112673;27;20230;-61
2022/03/10 12:40:19;;;;;;;18.15;13.43;;;10.40;80.30;;;;;;5112424;27;20237;-62
2022/03/10 12:42:47;;;;;;;15.85;14.25;;;10.50;79.10;;;;;;5112907;27;20220;-62
2022/03/10 12:45:21;;;;;;;14.73;13.07;;;10.50;78.60;;;;;;5112541;27;20223;-62
2022/03/10 12:47:54;;;;;;;16.38;13.65;;;10.50;78.40;;;;;;5113179;27;20680;-62